sensor_id;sensor_type;location;lat;lon;timestamp;temperature;humidity
75994;DHT22;64680;53.800;9.988;2023-02-28T00:00:13;2.20;16.80
75994;DHT22;64680;53.800;9.988;2023-02-28T00:02:43;2.20;15.70
75994;DHT22;64680;53.800;9.988;2023-02-28T00:05:11;2.20;15.50
75994;DHT22;64680;53.800;9.988;2023-02-28T00:07:37;2.20;15.70
75994;DHT22;64680;53.800;9.988;2023-02-28T00:10:05;2.20;16.70
75994;DHT22;64680;53.800;9.988;2023-02-28T00:12:33;2.10;17.20
75994;DHT22;64680;53.800;9.988;2023-02-28T00:14:58;2.10;18.00
75994;DHT22;64680;53.800;9.988;2023-02-28T00:17:24;2.10;19.30
75994;DHT22;64680;53.800;9.988;2023-02-28T00:19:51;2.10;20.00
75994;DHT22;64680;53.800;9.988;2023-02-28T00:22:18;2.00;20.30
75994;DHT22;64680;53.800;9.988;2023-02-28T00:24:43;2.10;18.60
75994;DHT22;64680;53.800;9.988;2023-02-28T00:27:10;2.00;17.40
75994;DHT22;64680;53.800;9.988;2023-02-28T00:29:36;2.00;18.00
75994;DHT22;64680;53.800;9.988;2023-02-28T00:32:02;1.90;18.30
75994;DHT22;64680;53.800;9.988;2023-02-28T00:34:28;1.90;18.70
75994;DHT22;64680;53.800;9.988;2023-02-28T00:36:54;1.90;19.50
75994;DHT22;64680;53.800;9.988;2023-02-28T00:39:19;1.80;20.00
75994;DHT22;64680;53.800;9.988;2023-02-28T00:41:45;1.80;20.40
75994;DHT22;64680;53.800;9.988;2023-02-28T00:44:11;1.80;19.40
75994;DHT22;64680;53.800;9.988;2023-02-28T00:46:36;1.80;18.20
75994;DHT22;64680;53.800;9.988;2023-02-28T00:49:02;1.80;17.90
75994;DHT22;64680;53.800;9.988;2023-02-28T00:51:28;1.70;18.60
75994;DHT22;64680;53.800;9.988;2023-02-28T00:53:54;1.80;19.30
75994;DHT22;64680;53.800;9.988;2023-02-28T00:56:20;1.70;18.40
75994;DHT22;64680;53.800;9.988;2023-02-28T00:58:46;1.70;18.90
75994;DHT22;64680;53.800;9.988;2023-02-28T01:01:12;1.70;19.80
75994;DHT22;64680;53.800;9.988;2023-02-28T01:03:38;1.70;19.90
75994;DHT22;64680;53.800;9.988;2023-02-28T01:06:04;1.70;18.70
75994;DHT22;64680;53.800;9.988;2023-02-28T01:08:29;1.70;17.70
75994;DHT22;64680;53.800;9.988;2023-02-28T01:10:55;1.70;16.00
75994;DHT22;64680;53.800;9.988;2023-02-28T01:13:21;1.70;14.60
75994;DHT22;64680;53.800;9.988;2023-02-28T01:15:51;1.70;13.50
75994;DHT22;64680;53.800;9.988;2023-02-28T01:18:17;1.70;12.70
75994;DHT22;64680;53.800;9.988;2023-02-28T01:20:42;1.70;10.90
75994;DHT22;64680;53.800;9.988;2023-02-28T01:23:09;1.70;10.00
75994;DHT22;64680;53.800;9.988;2023-02-28T01:25:35;1.70;9.50
75994;DHT22;64680;53.800;9.988;2023-02-28T01:28:01;1.70;9.60
75994;DHT22;64680;53.800;9.988;2023-02-28T01:30:27;1.70;9.30
75994;DHT22;64680;53.800;9.988;2023-02-28T01:32:52;1.70;9.20
75994;DHT22;64680;53.800;9.988;2023-02-28T01:35:19;1.70;8.90
75994;DHT22;64680;53.800;9.988;2023-02-28T01:37:45;1.70;9.10
75994;DHT22;64680;53.800;9.988;2023-02-28T01:40:12;1.70;9.20
75994;DHT22;64680;53.800;9.988;2023-02-28T01:42:38;1.70;9.10
75994;DHT22;64680;53.800;9.988;2023-02-28T01:45:26;1.70;9.20
75994;DHT22;64680;53.800;9.988;2023-02-28T01:47:55;1.60;9.20
75994;DHT22;64680;53.800;9.988;2023-02-28T01:50:26;1.60;9.20
75994;DHT22;64680;53.800;9.988;2023-02-28T01:52:56;1.60;10.20
75994;DHT22;64680;53.800;9.988;2023-02-28T01:55:23;1.60;8.30
75994;DHT22;64680;53.800;9.988;2023-02-28T01:57:55;1.60;8.30
75994;DHT22;64680;53.800;9.988;2023-02-28T02:00:24;1.60;8.00
75994;DHT22;64680;53.800;9.988;2023-02-28T02:02:55;1.60;7.70
75994;DHT22;64680;53.800;9.988;2023-02-28T02:05:28;1.60;7.40
75994;DHT22;64680;53.800;9.988;2023-02-28T02:08:01;1.60;7.50
75994;DHT22;64680;53.800;9.988;2023-02-28T02:13:14;1.60;8.40
75994;DHT22;64680;53.800;9.988;2023-02-28T02:19:46;1.50;10.40
75994;DHT22;64680;53.800;9.988;2023-02-28T02:38:38;1.20;14.00
75994;DHT22;64680;53.800;9.988;2023-02-28T02:43:46;1.20;13.80
75994;DHT22;64680;53.800;9.988;2023-02-28T02:46:45;1.20;13.90
75994;DHT22;64680;53.800;9.988;2023-02-28T02:49:24;1.10;13.70
75994;DHT22;64680;53.800;9.988;2023-02-28T02:51:52;1.10;13.80
75994;DHT22;64680;53.800;9.988;2023-02-28T02:54:24;1.10;14.00
75994;DHT22;64680;53.800;9.988;2023-02-28T02:56:55;1.10;13.90
75994;DHT22;64680;53.800;9.988;2023-02-28T02:59:22;1.10;14.10
75994;DHT22;64680;53.800;9.988;2023-02-28T03:01:55;1.00;14.70
75994;DHT22;64680;53.800;9.988;2023-02-28T03:04:23;1.00;15.80
75994;DHT22;64680;53.800;9.988;2023-02-28T03:06:51;1.00;15.80
75994;DHT22;64680;53.800;9.988;2023-02-28T03:09:24;1.00;15.20
75994;DHT22;64680;53.800;9.988;2023-02-28T03:11:53;1.00;15.30
75994;DHT22;64680;53.800;9.988;2023-02-28T03:15:18;1.00;15.90
75994;DHT22;64680;53.800;9.988;2023-02-28T03:17:40;1.00;16.00
75994;DHT22;64680;53.800;9.988;2023-02-28T03:20:27;1.00;17.10
75994;DHT22;64680;53.800;9.988;2023-02-28T03:23:13;1.00;16.30
75994;DHT22;64680;53.800;9.988;2023-02-28T03:25:56;1.10;14.60
75994;DHT22;64680;53.800;9.988;2023-02-28T03:28:43;1.10;14.00
75994;DHT22;64680;53.800;9.988;2023-02-28T03:31:18;1.10;14.20
75994;DHT22;64680;53.800;9.988;2023-02-28T03:36:48;0.90;17.40
75994;DHT22;64680;53.800;9.988;2023-02-28T03:39:17;0.90;18.30
75994;DHT22;64680;53.800;9.988;2023-02-28T03:44:21;0.80;19.70
75994;DHT22;64680;53.800;9.988;2023-02-28T03:47:08;0.80;20.20
75994;DHT22;64680;53.800;9.988;2023-02-28T03:49:48;0.80;20.00
75994;DHT22;64680;53.800;9.988;2023-02-28T03:52:14;0.80;19.70
75994;DHT22;64680;53.800;9.988;2023-02-28T03:54:49;0.80;19.30
75994;DHT22;64680;53.800;9.988;2023-02-28T03:57:49;0.70;19.50
75994;DHT22;64680;53.800;9.988;2023-02-28T04:00:21;0.70;19.00
75994;DHT22;64680;53.800;9.988;2023-02-28T04:02:53;0.60;18.70
75994;DHT22;64680;53.800;9.988;2023-02-28T04:05:20;0.60;18.90
75994;DHT22;64680;53.800;9.988;2023-02-28T04:07:46;0.60;19.40
75994;DHT22;64680;53.800;9.988;2023-02-28T04:10:13;0.50;19.50
75994;DHT22;64680;53.800;9.988;2023-02-28T04:12:39;0.50;20.70
75994;DHT22;64680;53.800;9.988;2023-02-28T04:15:05;0.40;22.00
75994;DHT22;64680;53.800;9.988;2023-02-28T04:17:31;0.30;22.50
75994;DHT22;64680;53.800;9.988;2023-02-28T04:19:57;0.20;23.30
75994;DHT22;64680;53.800;9.988;2023-02-28T04:22:23;0.10;24.20
75994;DHT22;64680;53.800;9.988;2023-02-28T04:24:52;0.00;25.90
75994;DHT22;64680;53.800;9.988;2023-02-28T04:27:20;-0.10;28.80
75994;DHT22;64680;53.800;9.988;2023-02-28T04:29:45;-0.20;28.90
75994;DHT22;64680;53.800;9.988;2023-02-28T04:32:11;-0.30;29.20
75994;DHT22;64680;53.800;9.988;2023-02-28T04:34:37;-0.40;30.20
75994;DHT22;64680;53.800;9.988;2023-02-28T04:37:03;-0.50;33.30
75994;DHT22;64680;53.800;9.988;2023-02-28T04:39:29;-0.50;36.30
75994;DHT22;64680;53.800;9.988;2023-02-28T04:41:55;-0.50;36.40
75994;DHT22;64680;53.800;9.988;2023-02-28T04:44:21;-0.60;36.80
75994;DHT22;64680;53.800;9.988;2023-02-28T04:46:48;-0.70;36.50
75994;DHT22;64680;53.800;9.988;2023-02-28T04:49:14;-0.70;37.20
75994;DHT22;64680;53.800;9.988;2023-02-28T04:51:40;-0.80;38.00
75994;DHT22;64680;53.800;9.988;2023-02-28T04:54:06;-0.80;39.20
75994;DHT22;64680;53.800;9.988;2023-02-28T04:56:32;-0.80;40.20
75994;DHT22;64680;53.800;9.988;2023-02-28T04:58:57;-0.90;40.80
75994;DHT22;64680;53.800;9.988;2023-02-28T05:01:28;-0.90;42.90
75994;DHT22;64680;53.800;9.988;2023-02-28T05:03:57;-0.90;43.60
75994;DHT22;64680;53.800;9.988;2023-02-28T05:06:24;-0.90;44.90
75994;DHT22;64680;53.800;9.988;2023-02-28T05:08:50;-0.90;45.60
75994;DHT22;64680;53.800;9.988;2023-02-28T05:11:22;-0.80;45.20
75994;DHT22;64680;53.800;9.988;2023-02-28T05:13:49;-0.90;43.80
75994;DHT22;64680;53.800;9.988;2023-02-28T05:16:15;-1.00;43.30
75994;DHT22;64680;53.800;9.988;2023-02-28T05:18:41;-1.10;42.90
75994;DHT22;64680;53.800;9.988;2023-02-28T05:23:49;-1.30;44.50
75994;DHT22;64680;53.800;9.988;2023-02-28T05:26:15;-1.40;46.50
75994;DHT22;64680;53.800;9.988;2023-02-28T05:28:41;-1.50;47.40
75994;DHT22;64680;53.800;9.988;2023-02-28T05:31:09;-1.60;46.10
75994;DHT22;64680;53.800;9.988;2023-02-28T05:33:36;-1.70;48.00
75994;DHT22;64680;53.800;9.988;2023-02-28T05:36:01;-1.70;49.00
75994;DHT22;64680;53.800;9.988;2023-02-28T05:38:27;-1.80;49.10
75994;DHT22;64680;53.800;9.988;2023-02-28T05:40:52;-1.90;49.70
75994;DHT22;64680;53.800;9.988;2023-02-28T05:43:18;-1.90;50.90
75994;DHT22;64680;53.800;9.988;2023-02-28T05:45:44;-2.00;51.20
75994;DHT22;64680;53.800;9.988;2023-02-28T05:48:10;-2.00;51.40
75994;DHT22;64680;53.800;9.988;2023-02-28T05:50:35;-2.10;51.60
75994;DHT22;64680;53.800;9.988;2023-02-28T05:53:01;-2.10;52.10
75994;DHT22;64680;53.800;9.988;2023-02-28T05:55:27;-2.20;52.80
75994;DHT22;64680;53.800;9.988;2023-02-28T05:57:52;-2.20;53.60
75994;DHT22;64680;53.800;9.988;2023-02-28T06:00:18;-2.20;54.10
75994;DHT22;64680;53.800;9.988;2023-02-28T06:02:44;-2.30;54.70
75994;DHT22;64680;53.800;9.988;2023-02-28T06:05:17;-2.30;55.60
75994;DHT22;64680;53.800;9.988;2023-02-28T06:07:43;-2.30;56.00
75994;DHT22;64680;53.800;9.988;2023-02-28T06:10:10;-2.30;56.20
75994;DHT22;64680;53.800;9.988;2023-02-28T06:12:37;-2.40;56.40
75994;DHT22;64680;53.800;9.988;2023-02-28T06:15:03;-2.40;56.70
75994;DHT22;64680;53.800;9.988;2023-02-28T06:17:29;-2.40;57.20
75994;DHT22;64680;53.800;9.988;2023-02-28T06:19:55;-2.40;57.60
75994;DHT22;64680;53.800;9.988;2023-02-28T06:22:20;-2.40;57.70
75994;DHT22;64680;53.800;9.988;2023-02-28T06:24:46;-2.40;57.50
75994;DHT22;64680;53.800;9.988;2023-02-28T06:27:12;-2.40;57.40
75994;DHT22;64680;53.800;9.988;2023-02-28T06:29:37;-2.40;57.70
75994;DHT22;64680;53.800;9.988;2023-02-28T06:32:05;-2.40;58.30
75994;DHT22;64680;53.800;9.988;2023-02-28T06:34:31;-2.40;58.30
75994;DHT22;64680;53.800;9.988;2023-02-28T06:36:59;-2.40;58.60
75994;DHT22;64680;53.800;9.988;2023-02-28T06:39:28;-2.30;58.50
75994;DHT22;64680;53.800;9.988;2023-02-28T06:41:54;-2.30;58.40
75994;DHT22;64680;53.800;9.988;2023-02-28T06:44:20;-2.20;58.60
75994;DHT22;64680;53.800;9.988;2023-02-28T06:46:46;-2.20;59.00
75994;DHT22;64680;53.800;9.988;2023-02-28T06:49:12;-2.10;59.20
75994;DHT22;64680;53.800;9.988;2023-02-28T06:51:39;-2.00;59.50
75994;DHT22;64680;53.800;9.988;2023-02-28T06:54:05;-1.90;59.40
75994;DHT22;64680;53.800;9.988;2023-02-28T06:56:34;-1.80;59.40
75994;DHT22;64680;53.800;9.988;2023-02-28T06:59:00;-1.70;59.20
75994;DHT22;64680;53.800;9.988;2023-02-28T07:01:26;-1.70;58.90
75994;DHT22;64680;53.800;9.988;2023-02-28T07:03:53;-1.60;58.50
75994;DHT22;64680;53.800;9.988;2023-02-28T07:06:20;-1.50;58.20
75994;DHT22;64680;53.800;9.988;2023-02-28T07:08:49;-1.40;58.00
75994;DHT22;64680;53.800;9.988;2023-02-28T07:11:14;-1.20;57.90
75994;DHT22;64680;53.800;9.988;2023-02-28T07:13:40;-1.10;57.30
75994;DHT22;64680;53.800;9.988;2023-02-28T07:16:08;-1.00;56.20
75994;DHT22;64680;53.800;9.988;2023-02-28T07:18:35;-0.90;53.80
75994;DHT22;64680;53.800;9.988;2023-02-28T07:21:06;-0.80;52.20
75994;DHT22;64680;53.800;9.988;2023-02-28T07:23:32;-0.60;50.30
75994;DHT22;64680;53.800;9.988;2023-02-28T07:25:58;-0.50;48.10
75994;DHT22;64680;53.800;9.988;2023-02-28T07:28:23;-0.40;46.10
75994;DHT22;64680;53.800;9.988;2023-02-28T07:30:49;-0.40;44.40
75994;DHT22;64680;53.800;9.988;2023-02-28T07:33:15;-0.30;42.50
75994;DHT22;64680;53.800;9.988;2023-02-28T07:35:40;-0.20;41.30
75994;DHT22;64680;53.800;9.988;2023-02-28T07:38:06;-0.10;40.00
75994;DHT22;64680;53.800;9.988;2023-02-28T07:40:34;0.00;38.90
75994;DHT22;64680;53.800;9.988;2023-02-28T07:43:00;0.10;35.30
75994;DHT22;64680;53.800;9.988;2023-02-28T07:45:26;0.20;34.60
75994;DHT22;64680;53.800;9.988;2023-02-28T07:47:54;0.40;32.50
75994;DHT22;64680;53.800;9.988;2023-02-28T07:50:20;0.50;29.40
75994;DHT22;64680;53.800;9.988;2023-02-28T07:52:46;0.60;27.90
75994;DHT22;64680;53.800;9.988;2023-02-28T07:55:12;0.70;24.80
75994;DHT22;64680;53.800;9.988;2023-02-28T07:57:39;0.80;23.00
75994;DHT22;64680;53.800;9.988;2023-02-28T08:00:06;0.90;23.30
75994;DHT22;64680;53.800;9.988;2023-02-28T08:02:32;1.00;21.80
75994;DHT22;64680;53.800;9.988;2023-02-28T08:04:57;1.10;20.00
75994;DHT22;64680;53.800;9.988;2023-02-28T08:07:23;1.10;19.90
75994;DHT22;64680;53.800;9.988;2023-02-28T08:09:48;1.30;17.50
75994;DHT22;64680;53.800;9.988;2023-02-28T08:12:14;1.30;16.10
75994;DHT22;64680;53.800;9.988;2023-02-28T08:14:40;1.50;13.80
75994;DHT22;64680;53.800;9.988;2023-02-28T08:17:06;1.60;11.80
75994;DHT22;64680;53.800;9.988;2023-02-28T08:19:32;1.70;10.40
75994;DHT22;64680;53.800;9.988;2023-02-28T08:21:57;1.80;10.10
75994;DHT22;64680;53.800;9.988;2023-02-28T08:24:23;1.90;9.00
75994;DHT22;64680;53.800;9.988;2023-02-28T08:26:49;2.00;7.20
75994;DHT22;64680;53.800;9.988;2023-02-28T08:29:15;2.20;3.80
75994;DHT22;64680;53.800;9.988;2023-02-28T08:31:41;2.30;1.00
75994;DHT22;64680;53.800;9.988;2023-02-28T08:34:12;2.50;1.00
75994;DHT22;64680;53.800;9.988;2023-02-28T08:36:39;2.60;1.00
75994;DHT22;64680;53.800;9.988;2023-02-28T08:39:05;3.80;1.00
75994;DHT22;64680;53.800;9.988;2023-02-28T08:41:31;5.70;1.00
75994;DHT22;64680;53.800;9.988;2023-02-28T08:43:57;7.20;1.00
75994;DHT22;64680;53.800;9.988;2023-02-28T08:46:23;8.20;1.00
75994;DHT22;64680;53.800;9.988;2023-02-28T08:48:52;8.70;1.00
75994;DHT22;64680;53.800;9.988;2023-02-28T08:51:19;8.60;1.00
75994;DHT22;64680;53.800;9.988;2023-02-28T08:53:52;9.00;1.00
75994;DHT22;64680;53.800;9.988;2023-02-28T08:56:18;9.20;1.00
75994;DHT22;64680;53.800;9.988;2023-02-28T08:58:45;9.20;1.00
75994;DHT22;64680;53.800;9.988;2023-02-28T09:01:22;9.80;1.00
75994;DHT22;64680;53.800;9.988;2023-02-28T09:03:50;9.80;1.00
75994;DHT22;64680;53.800;9.988;2023-02-28T09:06:17;10.20;1.00
75994;DHT22;64680;53.800;9.988;2023-02-28T09:08:43;10.30;1.00
75994;DHT22;64680;53.800;9.988;2023-02-28T09:11:09;10.50;1.00
75994;DHT22;64680;53.800;9.988;2023-02-28T09:13:35;10.70;1.00
75994;DHT22;64680;53.800;9.988;2023-02-28T09:16:02;10.80;1.00
75994;DHT22;64680;53.800;9.988;2023-02-28T09:18:28;11.00;1.00
75994;DHT22;64680;53.800;9.988;2023-02-28T09:20:54;10.60;1.00
75994;DHT22;64680;53.800;9.988;2023-02-28T09:23:20;10.80;1.00
75994;DHT22;64680;53.800;9.988;2023-02-28T09:25:48;10.80;1.00
75994;DHT22;64680;53.800;9.988;2023-02-28T09:28:15;11.10;1.00
75994;DHT22;64680;53.800;9.988;2023-02-28T09:30:41;11.40;1.00
75994;DHT22;64680;53.800;9.988;2023-02-28T09:33:07;12.10;1.00
75994;DHT22;64680;53.800;9.988;2023-02-28T09:35:33;12.10;1.00
75994;DHT22;64680;53.800;9.988;2023-02-28T09:37:59;12.20;1.00
75994;DHT22;64680;53.800;9.988;2023-02-28T09:40:25;12.00;1.00
75994;DHT22;64680;53.800;9.988;2023-02-28T09:42:53;11.70;1.00
75994;DHT22;64680;53.800;9.988;2023-02-28T09:45:33;12.10;1.00
75994;DHT22;64680;53.800;9.988;2023-02-28T09:48:04;12.00;1.00
75994;DHT22;64680;53.800;9.988;2023-02-28T09:50:40;12.40;1.00
75994;DHT22;64680;53.800;9.988;2023-02-28T09:53:19;12.00;1.00
75994;DHT22;64680;53.800;9.988;2023-02-28T09:55:49;11.50;1.00
75994;DHT22;64680;53.800;9.988;2023-02-28T09:58:52;11.60;1.00
75994;DHT22;64680;53.800;9.988;2023-02-28T10:04:08;11.40;1.00
75994;DHT22;64680;53.800;9.988;2023-02-28T10:06:42;11.00;1.00
75994;DHT22;64680;53.800;9.988;2023-02-28T10:09:18;10.90;1.00
75994;DHT22;64680;53.800;9.988;2023-02-28T10:11:50;10.70;1.00
75994;DHT22;64680;53.800;9.988;2023-02-28T10:14:22;9.90;1.00
75994;DHT22;64680;53.800;9.988;2023-02-28T10:16:56;9.80;1.00
75994;DHT22;64680;53.800;9.988;2023-02-28T10:19:33;9.60;1.00
75994;DHT22;64680;53.800;9.988;2023-02-28T10:22:03;9.50;1.00
75994;DHT22;64680;53.800;9.988;2023-02-28T10:27:14;9.10;1.00
75994;DHT22;64680;53.800;9.988;2023-02-28T10:29:43;9.00;1.00
75994;DHT22;64680;53.800;9.988;2023-02-28T10:32:12;9.20;1.00
75994;DHT22;64680;53.800;9.988;2023-02-28T10:34:38;9.00;1.00
75994;DHT22;64680;53.800;9.988;2023-02-28T10:37:04;8.70;1.00
75994;DHT22;64680;53.800;9.988;2023-02-28T10:39:42;8.30;1.00
75994;DHT22;64680;53.800;9.988;2023-02-28T10:42:28;7.90;1.00
75994;DHT22;64680;53.800;9.988;2023-02-28T10:45:16;8.10;1.00
75994;DHT22;64680;53.800;9.988;2023-02-28T10:47:52;8.50;1.00
75994;DHT22;64680;53.800;9.988;2023-02-28T11:01:23;8.20;1.00
75994;DHT22;64680;53.800;9.988;2023-02-28T11:03:49;8.30;1.00
75994;DHT22;64680;53.800;9.988;2023-02-28T11:06:18;8.40;1.00
75994;DHT22;64680;53.800;9.988;2023-02-28T11:08:57;8.10;1.00
75994;DHT22;64680;53.800;9.988;2023-02-28T11:11:26;8.10;1.00
75994;DHT22;64680;53.800;9.988;2023-02-28T11:13:58;8.30;1.00
75994;DHT22;64680;53.800;9.988;2023-02-28T11:16:36;8.40;1.00
75994;DHT22;64680;53.800;9.988;2023-02-28T11:19:04;7.90;1.00
75994;DHT22;64680;53.800;9.988;2023-02-28T11:21:33;7.70;1.00
75994;DHT22;64680;53.800;9.988;2023-02-28T11:26:48;8.30;1.00
75994;DHT22;64680;53.800;9.988;2023-02-28T11:32:12;8.60;1.00
75994;DHT22;64680;53.800;9.988;2023-02-28T11:34:41;8.70;1.00
75994;DHT22;64680;53.800;9.988;2023-02-28T11:37:19;8.70;1.00
75994;DHT22;64680;53.800;9.988;2023-02-28T11:39:46;9.10;1.00
75994;DHT22;64680;53.800;9.988;2023-02-28T11:42:33;9.20;1.00
75994;DHT22;64680;53.800;9.988;2023-02-28T11:45:26;9.60;1.00
75994;DHT22;64680;53.800;9.988;2023-02-28T11:48:06;9.60;1.00
75994;DHT22;64680;53.800;9.988;2023-02-28T11:50:45;9.60;1.00
75994;DHT22;64680;53.800;9.988;2023-02-28T11:56:05;9.90;1.00
75994;DHT22;64680;53.800;9.988;2023-02-28T11:59:08;9.70;1.00
75994;DHT22;64680;53.800;9.988;2023-02-28T12:04:52;10.10;1.00
75994;DHT22;64680;53.800;9.988;2023-02-28T12:26:45;10.20;1.00
75994;DHT22;64680;53.800;9.988;2023-02-28T12:29:29;10.20;1.00
75994;DHT22;64680;53.800;9.988;2023-02-28T12:32:01;10.30;1.00
75994;DHT22;64680;53.800;9.988;2023-02-28T12:34:36;10.60;1.00
75994;DHT22;64680;53.800;9.988;2023-02-28T12:37:07;10.60;1.00
75994;DHT22;64680;53.800;9.988;2023-02-28T12:39:45;10.50;1.00
75994;DHT22;64680;53.800;9.988;2023-02-28T12:42:16;9.00;1.00
75994;DHT22;64680;53.800;9.988;2023-02-28T12:45:19;8.30;1.00
75994;DHT22;64680;53.800;9.988;2023-02-28T12:47:50;9.00;1.00
75994;DHT22;64680;53.800;9.988;2023-02-28T12:50:18;9.20;1.00
75994;DHT22;64680;53.800;9.988;2023-02-28T12:58:28;10.10;1.00
75994;DHT22;64680;53.800;9.988;2023-02-28T13:09:18;10.40;1.00
75994;DHT22;64680;53.800;9.988;2023-02-28T13:11:52;10.40;1.00
75994;DHT22;64680;53.800;9.988;2023-02-28T13:19:31;10.40;1.00
75994;DHT22;64680;53.800;9.988;2023-02-28T13:21:58;9.50;1.00
75994;DHT22;64680;53.800;9.988;2023-02-28T13:24:49;9.00;1.00
75994;DHT22;64680;53.800;9.988;2023-02-28T13:27:38;9.10;1.00
75994;DHT22;64680;53.800;9.988;2023-02-28T13:33:35;8.90;1.00
75994;DHT22;64680;53.800;9.988;2023-02-28T13:36:21;8.40;1.00
75994;DHT22;64680;53.800;9.988;2023-02-28T13:38:51;8.00;1.00
75994;DHT22;64680;53.800;9.988;2023-02-28T13:49:32;7.40;1.00
75994;DHT22;64680;53.800;9.988;2023-02-28T13:55:12;7.10;1.00
75994;DHT22;64680;53.800;9.988;2023-02-28T14:00:48;7.00;1.00
75994;DHT22;64680;53.800;9.988;2023-02-28T14:03:29;6.90;1.00
75994;DHT22;64680;53.800;9.988;2023-02-28T14:06:17;6.80;1.00
75994;DHT22;64680;53.800;9.988;2023-02-28T14:08:57;6.70;1.00
75994;DHT22;64680;53.800;9.988;2023-02-28T14:11:35;6.70;1.00
75994;DHT22;64680;53.800;9.988;2023-02-28T14:14:02;6.70;1.00
75994;DHT22;64680;53.800;9.988;2023-02-28T14:16:46;6.70;1.00
75994;DHT22;64680;53.800;9.988;2023-02-28T14:19:24;6.70;1.00
75994;DHT22;64680;53.800;9.988;2023-02-28T14:22:00;6.60;1.00
75994;DHT22;64680;53.800;9.988;2023-02-28T14:27:35;6.50;1.00
75994;DHT22;64680;53.800;9.988;2023-02-28T14:30:40;6.40;1.00
75994;DHT22;64680;53.800;9.988;2023-02-28T14:33:31;6.50;1.00
75994;DHT22;64680;53.800;9.988;2023-02-28T14:39:06;6.40;1.00
75994;DHT22;64680;53.800;9.988;2023-02-28T14:41:38;6.40;1.00
75994;DHT22;64680;53.800;9.988;2023-02-28T14:44:31;6.40;1.00
75994;DHT22;64680;53.800;9.988;2023-02-28T14:47:01;6.40;1.00
75994;DHT22;64680;53.800;9.988;2023-02-28T14:49:42;6.50;1.00
75994;DHT22;64680;53.800;9.988;2023-02-28T14:52:19;6.40;1.00
75994;DHT22;64680;53.800;9.988;2023-02-28T14:54:45;6.30;1.00
75994;DHT22;64680;53.800;9.988;2023-02-28T14:57:32;6.40;1.00
75994;DHT22;64680;53.800;9.988;2023-02-28T15:00:05;6.40;1.00
75994;DHT22;64680;53.800;9.988;2023-02-28T15:02:37;6.30;1.00
75994;DHT22;64680;53.800;9.988;2023-02-28T15:07:38;6.20;1.00
75994;DHT22;64680;53.800;9.988;2023-02-28T15:10:13;6.20;1.00
75994;DHT22;64680;53.800;9.988;2023-02-28T15:12:41;6.20;1.00
75994;DHT22;64680;53.800;9.988;2023-02-28T15:15:18;6.20;1.00
75994;DHT22;64680;53.800;9.988;2023-02-28T15:17:46;6.10;1.00
75994;DHT22;64680;53.800;9.988;2023-02-28T15:20:15;6.10;1.00
75994;DHT22;64680;53.800;9.988;2023-02-28T15:22:42;6.00;1.00
75994;DHT22;64680;53.800;9.988;2023-02-28T15:25:13;6.00;1.00
75994;DHT22;64680;53.800;9.988;2023-02-28T15:27:45;5.90;1.00
75994;DHT22;64680;53.800;9.988;2023-02-28T15:30:26;6.00;1.00
75994;DHT22;64680;53.800;9.988;2023-02-28T15:35:34;5.90;1.00
75994;DHT22;64680;53.800;9.988;2023-02-28T15:38:21;5.80;1.00
75994;DHT22;64680;53.800;9.988;2023-02-28T15:40:53;5.80;1.00
75994;DHT22;64680;53.800;9.988;2023-02-28T15:43:32;5.70;1.00
75994;DHT22;64680;53.800;9.988;2023-02-28T15:46:03;5.70;1.00
75994;DHT22;64680;53.800;9.988;2023-02-28T15:48:36;5.70;1.00
75994;DHT22;64680;53.800;9.988;2023-02-28T15:53:44;5.80;1.00
75994;DHT22;64680;53.800;9.988;2023-02-28T15:56:28;5.90;1.00
75994;DHT22;64680;53.800;9.988;2023-02-28T15:59:00;5.90;1.00
75994;DHT22;64680;53.800;9.988;2023-02-28T16:01:32;5.90;1.00
75994;DHT22;64680;53.800;9.988;2023-02-28T16:04:02;5.70;1.00
75994;DHT22;64680;53.800;9.988;2023-02-28T16:08:59;5.50;1.00
75994;DHT22;64680;53.800;9.988;2023-02-28T16:11:25;5.40;1.00
75994;DHT22;64680;53.800;9.988;2023-02-28T16:13:52;5.20;1.00
75994;DHT22;64680;53.800;9.988;2023-02-28T16:16:23;5.20;1.00
75994;DHT22;64680;53.800;9.988;2023-02-28T16:18:49;5.10;1.00
75994;DHT22;64680;53.800;9.988;2023-02-28T16:21:16;5.00;1.00
75994;DHT22;64680;53.800;9.988;2023-02-28T16:23:42;5.00;1.00
75994;DHT22;64680;53.800;9.988;2023-02-28T16:26:08;4.80;1.00
75994;DHT22;64680;53.800;9.988;2023-02-28T16:28:37;4.70;1.00
75994;DHT22;64680;53.800;9.988;2023-02-28T16:31:05;4.60;1.00
75994;DHT22;64680;53.800;9.988;2023-02-28T16:33:32;4.60;1.00
75994;DHT22;64680;53.800;9.988;2023-02-28T16:35:59;4.50;1.00
75994;DHT22;64680;53.800;9.988;2023-02-28T16:38:25;4.40;1.00
75994;DHT22;64680;53.800;9.988;2023-02-28T16:40:51;4.20;1.00
75994;DHT22;64680;53.800;9.988;2023-02-28T16:43:24;4.10;1.00
75994;DHT22;64680;53.800;9.988;2023-02-28T16:45:57;4.00;1.00
75994;DHT22;64680;53.800;9.988;2023-02-28T16:48:23;3.90;1.00
75994;DHT22;64680;53.800;9.988;2023-02-28T16:50:49;3.80;1.00
75994;DHT22;64680;53.800;9.988;2023-02-28T16:53:15;3.70;1.00
75994;DHT22;64680;53.800;9.988;2023-02-28T16:55:41;3.60;1.00
75994;DHT22;64680;53.800;9.988;2023-02-28T16:58:10;3.40;1.00
75994;DHT22;64680;53.800;9.988;2023-02-28T17:00:37;3.30;1.00
75994;DHT22;64680;53.800;9.988;2023-02-28T17:03:02;3.20;1.00
75994;DHT22;64680;53.800;9.988;2023-02-28T17:05:34;3.00;1.00
75994;DHT22;64680;53.800;9.988;2023-02-28T17:08:02;2.90;1.00
75994;DHT22;64680;53.800;9.988;2023-02-28T17:10:28;2.80;1.00
75994;DHT22;64680;53.800;9.988;2023-02-28T17:12:54;2.70;1.00
75994;DHT22;64680;53.800;9.988;2023-02-28T17:15:20;2.60;1.00
75994;DHT22;64680;53.800;9.988;2023-02-28T17:17:47;2.50;1.00
75994;DHT22;64680;53.800;9.988;2023-02-28T17:20:16;2.30;1.00
75994;DHT22;64680;53.800;9.988;2023-02-28T17:22:42;2.20;1.00
75994;DHT22;64680;53.800;9.988;2023-02-28T17:25:09;2.10;1.00
75994;DHT22;64680;53.800;9.988;2023-02-28T17:27:36;2.00;1.00
75994;DHT22;64680;53.800;9.988;2023-02-28T17:30:09;1.90;1.00
75994;DHT22;64680;53.800;9.988;2023-02-28T17:32:38;1.80;1.00
75994;DHT22;64680;53.800;9.988;2023-02-28T17:35:05;1.70;1.00
75994;DHT22;64680;53.800;9.988;2023-02-28T17:37:30;1.60;1.00
75994;DHT22;64680;53.800;9.988;2023-02-28T17:39:56;1.50;1.00
75994;DHT22;64680;53.800;9.988;2023-02-28T17:42:22;1.40;1.00
75994;DHT22;64680;53.800;9.988;2023-02-28T17:44:47;1.40;1.00
75994;DHT22;64680;53.800;9.988;2023-02-28T17:47:13;1.20;1.00
75994;DHT22;64680;53.800;9.988;2023-02-28T17:49:39;1.10;1.00
75994;DHT22;64680;53.800;9.988;2023-02-28T17:52:04;1.10;1.00
75994;DHT22;64680;53.800;9.988;2023-02-28T17:54:30;1.00;1.00
75994;DHT22;64680;53.800;9.988;2023-02-28T17:56:57;0.90;1.00
75994;DHT22;64680;53.800;9.988;2023-02-28T17:59:23;0.90;1.00
75994;DHT22;64680;53.800;9.988;2023-02-28T18:01:48;0.80;1.00
75994;DHT22;64680;53.800;9.988;2023-02-28T18:04:14;0.80;1.00
75994;DHT22;64680;53.800;9.988;2023-02-28T18:06:40;0.70;1.00
75994;DHT22;64680;53.800;9.988;2023-02-28T18:09:20;0.60;1.00
75994;DHT22;64680;53.800;9.988;2023-02-28T18:11:50;0.60;1.60
75994;DHT22;64680;53.800;9.988;2023-02-28T18:14:18;0.50;1.80
75994;DHT22;64680;53.800;9.988;2023-02-28T18:16:45;0.40;2.30
75994;DHT22;64680;53.800;9.988;2023-02-28T18:19:12;0.30;3.10
75994;DHT22;64680;53.800;9.988;2023-02-28T18:21:46;0.30;3.00